createdAt,value
2023-03-03T00:00:49.000Z,98462.72
2023-03-03T00:01:50.455Z,98467.84
2023-03-03T00:02:51.952Z,98456.28
2023-03-03T00:03:53.904Z,98461.25
2023-03-03T00:04:55.491Z,98471.13
2023-03-03T00:05:56.952Z,98469.50
2023-03-03T00:06:58.420Z,98473.63
2023-03-03T00:08:00.687Z,98467.88
2023-03-03T00:09:02.392Z,98464.56
2023-03-03T00:10:04.188Z,98468.28
2023-03-03T00:11:06.908Z,98462.47
2023-03-03T00:12:20.532Z,98465.38
2023-03-03T00:13:23.564Z,98452.56
2023-03-03T00:14:32.161Z,98462.44
2023-03-03T00:15:33.818Z,98458.97
2023-03-03T00:16:38.626Z,98454.25
2023-03-03T00:17:40.184Z,98462.56
2023-03-03T00:18:44.476Z,98470.63
2023-03-03T00:19:47.478Z,98468.78
2023-03-03T00:20:49.758Z,98466.28
2023-03-03T00:21:51.481Z,98440.63
2023-03-03T00:22:53.053Z,98445.78
2023-03-03T00:23:55.398Z,98468.31
2023-03-03T00:25:28.980Z,98469.16
2023-03-03T00:26:38.060Z,98476.59
2023-03-03T00:27:39.609Z,98477.22
2023-03-03T00:28:46.464Z,98475.13
2023-03-03T00:29:48.354Z,98466.25
2023-03-03T00:30:50.365Z,98467.50
2023-03-03T00:31:51.913Z,98472.41
2023-03-03T00:32:54.885Z,98476.50
2023-03-03T00:33:56.308Z,98477.19
2023-03-03T00:35:02.774Z,98466.75
2023-03-03T00:36:37.393Z,98477.28
2023-03-03T00:37:39.515Z,98476.91
2023-03-03T00:38:41.034Z,98481.00
2023-03-03T00:39:42.533Z,98479.22
2023-03-03T00:40:44.095Z,98475.97
2023-03-03T00:41:45.922Z,98472.19
2023-03-03T00:42:51.436Z,98473.22
2023-03-03T00:43:53.019Z,98482.09
2023-03-03T00:45:00.577Z,98477.22
2023-03-03T00:46:02.202Z,98490.31
2023-03-03T00:47:14.450Z,98492.44
2023-03-03T00:48:23.195Z,98485.47
2023-03-03T00:49:26.624Z,98482.81
2023-03-03T00:50:30.447Z,98478.06
2023-03-03T00:51:33.225Z,98471.59
2023-03-03T00:52:39.764Z,98476.84
2023-03-03T00:53:41.352Z,98481.75
2023-03-03T00:54:42.843Z,98482.38
2023-03-03T00:55:45.265Z,98485.84
2023-03-03T00:56:46.818Z,98480.72
2023-03-03T00:57:48.645Z,98484.88
2023-03-03T00:58:50.545Z,98484.31
2023-03-03T00:59:52.048Z,98487.84
2023-03-03T01:00:54.687Z,98492.09
2023-03-03T01:01:56.295Z,98481.94
2023-03-03T01:02:58.559Z,98486.34
2023-03-03T01:04:00.352Z,98477.69
2023-03-03T01:05:01.812Z,98487.97
2023-03-03T01:06:03.429Z,98491.13
2023-03-03T01:07:05.018Z,98505.41
2023-03-03T01:08:06.900Z,98503.97
2023-03-03T01:09:08.472Z,98501.31
2023-03-03T01:10:10.648Z,98496.13
2023-03-03T01:11:23.003Z,98506.16
2023-03-03T01:12:24.523Z,98496.63
2023-03-03T01:13:31.547Z,98488.09
2023-03-03T01:14:33.082Z,98501.16
2023-03-03T01:15:34.638Z,98465.56
2023-03-03T01:16:36.335Z,98502.44
2023-03-03T01:17:38.605Z,98498.66
2023-03-03T01:18:41.822Z,98500.31
2023-03-03T01:19:43.325Z,98492.13
2023-03-03T01:20:44.827Z,98490.88
2023-03-03T01:21:46.451Z,98500.91
2023-03-03T01:22:48.290Z,98495.34
2023-03-03T01:23:49.826Z,98490.78
2023-03-03T01:24:51.374Z,98492.28
2023-03-03T01:25:52.870Z,98492.09
2023-03-03T01:26:54.384Z,98495.16
2023-03-03T01:27:56.820Z,98488.56
2023-03-03T01:28:58.315Z,98495.16
2023-03-03T01:29:59.821Z,98489.41
2023-03-03T01:31:04.909Z,98479.91
2023-03-03T01:32:06.608Z,98485.13
2023-03-03T01:33:08.473Z,98478.75
2023-03-03T01:34:09.982Z,98456.13
2023-03-03T01:35:11.608Z,98483.34
2023-03-03T01:36:13.227Z,98480.66
2023-03-03T01:37:14.722Z,98459.81
2023-03-03T01:38:16.603Z,98468.66
2023-03-03T01:39:18.148Z,98472.03
2023-03-03T01:40:25.416Z,98469.06
2023-03-03T01:41:30.055Z,98479.91
2023-03-03T01:42:31.779Z,98472.50
2023-03-03T01:43:33.554Z,98485.28
2023-03-03T01:44:35.015Z,98464.19
2023-03-03T01:45:49.004Z,98476.97
2023-03-03T01:47:13.292Z,98477.78
2023-03-03T01:48:31.890Z,98452.41
2023-03-03T01:49:44.730Z,98475.50
2023-03-03T01:50:52.142Z,98480.00
2023-03-03T01:52:12.740Z,98465.72
2023-03-03T01:53:23.899Z,98459.72
2023-03-03T01:54:30.986Z,98468.16
2023-03-03T01:55:35.429Z,98472.25
2023-03-03T01:56:37.334Z,98477.16
2023-03-03T01:57:41.393Z,98478.13
2023-03-03T01:58:53.954Z,98477.16
2023-03-03T01:59:55.478Z,98474.97
2023-03-03T02:01:02.784Z,98477.44
2023-03-03T02:02:04.787Z,98467.84
2023-03-03T02:03:06.893Z,98459.81
2023-03-03T02:04:08.657Z,98473.94
2023-03-03T02:05:10.353Z,98467.41
2023-03-03T02:06:14.482Z,98476.06
2023-03-03T02:07:15.968Z,98465.34
2023-03-03T02:08:19.294Z,98462.75
2023-03-03T02:09:41.661Z,98462.22
2023-03-03T02:10:44.912Z,98454.25
2023-03-03T02:11:46.460Z,98454.78
2023-03-03T02:12:52.853Z,98459.94
2023-03-03T02:13:54.336Z,98446.00
2023-03-03T02:14:55.870Z,98458.22
2023-03-03T02:15:59.178Z,98455.56
2023-03-03T02:17:00.727Z,98466.19
2023-03-03T02:18:06.707Z,98465.97
2023-03-03T02:19:18.062Z,98451.69
2023-03-03T02:20:29.065Z,98464.66
2023-03-03T02:21:30.545Z,98465.72
2023-03-03T02:22:41.156Z,98467.19
2023-03-03T02:24:04.562Z,98471.00
2023-03-03T02:25:06.445Z,98470.69
2023-03-03T02:26:12.419Z,98452.03
2023-03-03T02:27:14.693Z,98467.31
2023-03-03T02:28:16.193Z,98451.56
2023-03-03T02:29:17.723Z,98468.50
2023-03-03T02:30:21.019Z,98462.84
2023-03-03T02:31:24.522Z,98467.03
2023-03-03T02:32:26.163Z,98470.72
2023-03-03T02:33:27.964Z,98472.34
2023-03-03T02:34:29.484Z,98460.34
2023-03-03T02:35:36.102Z,98464.69
2023-03-03T02:36:38.625Z,98476.41
2023-03-03T02:37:40.156Z,98466.16
2023-03-03T02:38:52.434Z,98484.44
2023-03-03T02:39:54.027Z,98472.47
2023-03-03T02:41:28.048Z,98472.47
2023-03-03T02:42:29.672Z,98469.41
2023-03-03T02:43:35.683Z,98472.75
2023-03-03T02:44:37.319Z,98481.31
2023-03-03T02:45:43.336Z,98472.06
2023-03-03T02:46:46.407Z,98471.63
2023-03-03T02:47:51.450Z,98474.66
2023-03-03T02:48:52.983Z,98474.56
2023-03-03T02:49:54.514Z,98478.16
2023-03-03T02:50:56.049Z,98477.63
2023-03-03T02:51:57.820Z,98476.53
2023-03-03T02:52:59.313Z,98475.38
2023-03-03T02:54:00.895Z,98478.50
2023-03-03T02:55:02.416Z,98457.66
2023-03-03T02:56:04.516Z,98471.41
2023-03-03T02:57:06.061Z,98469.75
2023-03-03T02:58:07.612Z,98462.16
2023-03-03T02:59:09.223Z,98463.41
2023-03-03T03:00:11.272Z,98455.72
2023-03-03T03:01:12.826Z,98461.53
2023-03-03T03:02:14.351Z,98474.44
2023-03-03T03:03:15.854Z,98471.34
2023-03-03T03:04:19.585Z,98475.28
2023-03-03T03:05:21.086Z,98467.06
2023-03-03T03:06:22.598Z,98470.84
2023-03-03T03:07:24.096Z,98472.09
2023-03-03T03:08:25.600Z,98452.47
2023-03-03T03:09:28.262Z,98473.19
2023-03-03T03:10:29.809Z,98476.50
2023-03-03T03:11:31.357Z,98470.31
2023-03-03T03:12:32.849Z,98463.41
2023-03-03T03:13:34.355Z,98475.03
2023-03-03T03:14:36.464Z,98483.69
2023-03-03T03:15:37.938Z,98477.09
2023-03-03T03:16:39.686Z,98477.94
2023-03-03T03:17:41.558Z,98480.41
2023-03-03T03:18:43.050Z,98477.91
2023-03-03T03:19:44.684Z,98485.81
2023-03-03T03:20:48.387Z,98487.63
2023-03-03T03:21:50.116Z,98480.16
2023-03-03T03:22:51.586Z,98485.56
2023-03-03T03:23:53.185Z,98461.16
2023-03-03T03:24:54.834Z,98494.13
2023-03-03T03:25:56.336Z,98485.69
2023-03-03T03:26:57.837Z,98481.63
2023-03-03T03:27:59.322Z,98486.56
2023-03-03T03:29:00.862Z,98488.34
2023-03-03T03:30:02.456Z,98484.81
2023-03-03T03:31:04.310Z,98475.25
2023-03-03T03:32:06.026Z,98475.75
2023-03-03T03:33:07.620Z,98491.34
2023-03-03T03:34:09.469Z,98486.47
2023-03-03T03:35:11.485Z,98491.25
2023-03-03T03:36:13.083Z,98490.06
2023-03-03T03:37:14.657Z,98494.06
2023-03-03T03:38:16.484Z,98493.66
2023-03-03T03:39:18.371Z,98487.25
2023-03-03T03:40:19.992Z,98487.28
2023-03-03T03:41:21.525Z,98488.03
2023-03-03T03:42:23.016Z,98489.09
2023-03-03T03:43:24.935Z,98474.41
2023-03-03T03:44:26.546Z,98497.31
2023-03-03T03:45:28.053Z,98499.59
2023-03-03T03:46:29.697Z,98490.56
2023-03-03T03:47:31.236Z,98481.88
2023-03-03T03:48:32.748Z,98498.63
2023-03-03T03:49:34.600Z,98480.91
2023-03-03T03:50:36.305Z,98478.66
2023-03-03T03:51:41.348Z,98492.97
2023-03-03T03:52:43.671Z,98490.91
2023-03-03T03:53:45.697Z,98484.31
2023-03-03T03:54:47.548Z,98480.53
2023-03-03T03:55:49.134Z,98493.28
2023-03-03T03:56:50.830Z,98490.81
2023-03-03T03:57:52.343Z,98486.03
2023-03-03T03:58:53.884Z,98494.91
2023-03-03T03:59:55.417Z,98481.69
2023-03-03T04:01:04.166Z,98488.84
2023-03-03T04:02:05.739Z,98480.38
2023-03-03T04:03:07.507Z,98472.53
2023-03-03T04:04:09.185Z,98483.28
2023-03-03T04:05:10.773Z,98474.38
2023-03-03T04:06:12.409Z,98475.78
2023-03-03T04:07:13.976Z,98474.09
2023-03-03T04:08:15.524Z,98484.63
2023-03-03T04:09:17.108Z,98484.72
2023-03-03T04:10:19.038Z,98493.34
2023-03-03T04:11:20.539Z,98482.38
2023-03-03T04:12:22.150Z,98489.44
2023-03-03T04:13:23.873Z,98483.97
2023-03-03T04:14:25.446Z,98485.91
2023-03-03T04:15:27.015Z,98486.66
2023-03-03T04:16:28.619Z,98481.09
2023-03-03T04:17:30.168Z,98475.84
2023-03-03T04:18:31.736Z,98472.63
2023-03-03T04:19:33.233Z,98468.69
2023-03-03T04:20:35.060Z,98494.28
2023-03-03T04:21:36.624Z,98491.94
2023-03-03T04:22:38.286Z,98492.38
2023-03-03T04:23:39.890Z,98477.47
2023-03-03T04:24:41.499Z,98487.84
2023-03-03T04:25:43.375Z,98497.25
2023-03-03T04:26:44.964Z,98491.44
2023-03-03T04:27:46.542Z,98503.22
2023-03-03T04:28:48.043Z,98490.66
2023-03-03T04:29:49.622Z,98502.31
2023-03-03T04:30:51.176Z,98511.47
2023-03-03T04:31:52.705Z,98499.84
2023-03-03T04:32:54.263Z,98500.53
2023-03-03T04:33:55.785Z,98505.78
2023-03-03T04:35:07.233Z,98502.53
2023-03-03T04:36:09.529Z,98497.63
2023-03-03T04:37:11.080Z,98488.53
2023-03-03T04:38:12.686Z,98484.75
2023-03-03T04:39:14.242Z,98517.47
2023-03-03T04:40:17.631Z,98504.81
2023-03-03T04:41:19.166Z,98508.47
2023-03-03T04:42:20.657Z,98495.91
2023-03-03T04:43:22.224Z,98502.72
2023-03-03T04:44:23.797Z,98494.06
2023-03-03T04:45:25.647Z,98502.53
2023-03-03T04:46:27.189Z,98491.41
2023-03-03T04:47:28.810Z,98504.50
2023-03-03T04:48:30.320Z,98504.44
2023-03-03T04:49:31.818Z,98488.50
2023-03-03T04:50:35.153Z,98500.34
2023-03-03T04:51:36.686Z,98496.84
2023-03-03T04:52:38.288Z,98494.16
2023-03-03T04:53:39.838Z,98498.53
2023-03-03T04:54:41.360Z,98495.25
2023-03-03T04:55:43.200Z,98505.13
2023-03-03T04:56:44.769Z,98505.13
2023-03-03T04:57:46.292Z,98494.53
2023-03-03T04:58:47.818Z,98503.72
2023-03-03T04:59:49.353Z,98496.69
2023-03-03T05:00:54.278Z,98510.63
2023-03-03T05:01:55.846Z,98512.16
2023-03-03T05:02:57.361Z,98515.75
2023-03-03T05:03:58.837Z,98518.31
2023-03-03T05:05:00.450Z,98525.09
2023-03-03T05:06:01.985Z,98522.72
2023-03-03T05:07:04.105Z,98514.94
2023-03-03T05:08:05.867Z,98513.09
2023-03-03T05:09:07.350Z,98512.91
2023-03-03T05:10:09.833Z,98520.22
2023-03-03T05:11:11.631Z,98514.53
2023-03-03T05:12:13.155Z,98522.19
2023-03-03T05:13:17.154Z,98519.88
2023-03-03T05:14:18.677Z,98518.94
2023-03-03T05:15:20.542Z,98517.19
2023-03-03T05:16:22.153Z,98520.94
2023-03-03T05:17:23.676Z,98524.63
2023-03-03T05:18:25.508Z,98522.53
2023-03-03T05:19:27.435Z,98513.59
2023-03-03T05:20:29.372Z,98525.03
2023-03-03T05:21:31.222Z,98517.19
2023-03-03T05:22:32.771Z,98523.41
2023-03-03T05:23:34.316Z,98521.84
2023-03-03T05:24:36.277Z,98532.78
2023-03-03T05:25:38.202Z,98511.50
2023-03-03T05:26:40.057Z,98515.28
2023-03-03T05:27:41.650Z,98513.88
2023-03-03T05:28:43.138Z,98528.34
2023-03-03T05:29:45.252Z,98514.97
2023-03-03T05:30:46.861Z,98527.16
2023-03-03T05:31:48.517Z,98523.25
2023-03-03T05:32:50.349Z,98523.25
2023-03-03T05:33:51.873Z,98524.06
2023-03-03T05:34:53.729Z,98517.25
2023-03-03T05:35:56.124Z,98514.19
2023-03-03T05:36:57.659Z,98513.97
2023-03-03T05:37:59.351Z,98525.28
2023-03-03T05:39:00.902Z,98525.91
2023-03-03T05:40:02.749Z,98517.66
2023-03-03T05:41:04.327Z,98521.56
2023-03-03T05:42:06.006Z,98523.25
2023-03-03T05:43:07.629Z,98528.69
2023-03-03T05:44:09.173Z,98529.22
2023-03-03T05:45:11.025Z,98533.13
2023-03-03T05:46:12.689Z,98528.59
2023-03-03T05:47:14.213Z,98535.59
2023-03-03T05:48:15.976Z,98507.25
2023-03-03T05:49:17.506Z,98531.28
2023-03-03T05:50:20.138Z,98536.81
2023-03-03T05:51:21.687Z,98546.13
2023-03-03T05:52:24.615Z,98543.44
2023-03-03T05:53:27.424Z,98541.16
2023-03-03T05:54:28.981Z,98536.81
2023-03-03T05:55:30.517Z,98538.66
2023-03-03T05:56:32.006Z,98543.75
2023-03-03T05:57:33.621Z,98550.50
2023-03-03T05:58:35.548Z,98542.16
2023-03-03T05:59:37.102Z,98547.88
2023-03-03T06:00:38.840Z,98547.50
2023-03-03T06:01:40.402Z,98544.91
2023-03-03T06:02:42.242Z,98549.50
2023-03-03T06:03:43.798Z,98543.31
2023-03-03T06:04:45.674Z,98543.13
2023-03-03T06:05:47.261Z,98540.38
2023-03-03T06:06:48.773Z,98541.09
2023-03-03T06:07:50.296Z,98540.91
2023-03-03T06:08:55.507Z,98541.09
2023-03-03T06:09:58.567Z,98547.66
2023-03-03T06:11:00.130Z,98552.53
2023-03-03T06:12:01.720Z,98552.34
2023-03-03T06:13:03.250Z,98547.81
2023-03-03T06:14:04.776Z,98545.34
2023-03-03T06:15:07.316Z,98549.69
2023-03-03T06:16:08.903Z,98549.25
2023-03-03T06:17:10.912Z,98557.81
2023-03-03T06:18:12.414Z,98559.50
2023-03-03T06:19:14.701Z,98563.78
2023-03-03T06:20:16.281Z,98560.16
2023-03-03T06:21:17.775Z,98563.91
2023-03-03T06:22:19.641Z,98559.84
2023-03-03T06:23:21.548Z,98563.88
2023-03-03T06:24:25.594Z,98563.34
2023-03-03T06:25:27.513Z,98560.19
2023-03-03T06:26:29.091Z,98569.47
2023-03-03T06:27:30.691Z,98570.69
2023-03-03T06:28:32.208Z,98567.84
2023-03-03T06:29:34.068Z,98572.53
2023-03-03T06:30:35.707Z,98574.19
2023-03-03T06:31:37.327Z,98571.50
2023-03-03T06:32:39.137Z,98571.69
2023-03-03T06:33:42.196Z,98573.72
2023-03-03T06:34:43.664Z,98581.75
2023-03-03T06:35:45.133Z,98576.16
2023-03-03T06:36:46.586Z,98584.84
2023-03-03T06:37:50.788Z,98573.31
2023-03-03T06:38:52.885Z,98569.00
2023-03-03T06:39:54.393Z,98580.56
2023-03-03T06:40:56.014Z,98587.28
2023-03-03T06:41:57.519Z,98575.88
2023-03-03T06:42:59.024Z,98582.41
2023-03-03T06:44:00.892Z,98574.78
2023-03-03T06:45:02.441Z,98578.09
2023-03-03T06:46:04.577Z,98578.38
2023-03-03T06:47:06.188Z,98588.41
2023-03-03T06:48:07.652Z,98591.56
2023-03-03T06:49:09.507Z,98587.03
2023-03-03T06:50:11.898Z,98603.44
2023-03-03T06:51:24.816Z,98596.16
2023-03-03T06:52:26.837Z,98605.75
2023-03-03T06:53:28.504Z,98601.03
2023-03-03T06:54:31.024Z,98598.81
2023-03-03T06:55:32.704Z,98613.50
2023-03-03T06:56:35.944Z,98598.09
2023-03-03T06:57:37.769Z,98605.28
2023-03-03T06:58:39.271Z,98609.69
2023-03-03T06:59:41.529Z,98605.22
2023-03-03T07:00:50.621Z,98614.16
2023-03-03T07:01:52.189Z,98616.81
2023-03-03T07:03:07.995Z,98622.16
2023-03-03T07:04:29.345Z,98618.19
2023-03-03T07:05:31.001Z,98622.84
2023-03-03T07:06:32.490Z,98618.88
2023-03-03T07:07:34.033Z,98618.06
2023-03-03T07:08:35.536Z,98595.06
2023-03-03T07:09:37.408Z,98610.53
2023-03-03T07:10:39.039Z,98610.63
2023-03-03T07:11:41.132Z,98588.28
2023-03-03T07:12:42.764Z,98612.38
2023-03-03T07:13:47.018Z,98617.25
2023-03-03T07:14:55.599Z,98613.72
2023-03-03T07:15:58.809Z,98610.47
2023-03-03T07:17:01.720Z,98603.16
2023-03-03T07:18:04.617Z,98621.81
2023-03-03T07:19:24.285Z,98619.28
2023-03-03T07:20:33.723Z,98613.38
2023-03-03T07:21:36.603Z,98624.00
2023-03-03T07:22:38.166Z,98613.94
2023-03-03T07:23:42.871Z,98621.88
2023-03-03T07:24:51.320Z,98622.56
2023-03-03T07:25:54.124Z,98622.97
2023-03-03T07:27:20.262Z,98625.25
2023-03-03T07:28:29.084Z,98628.91
2023-03-03T07:29:30.831Z,98622.31
2023-03-03T07:30:32.408Z,98629.22
2023-03-03T07:31:37.900Z,98615.56
2023-03-03T07:32:42.624Z,98625.81
2023-03-03T07:33:45.419Z,98621.16
2023-03-03T07:34:47.867Z,98640.06
2023-03-03T07:35:49.440Z,98633.06
2023-03-03T07:36:54.652Z,98636.34
2023-03-03T07:37:56.254Z,98624.38
2023-03-03T07:39:01.623Z,98639.28
2023-03-03T07:40:07.256Z,98636.81
2023-03-03T07:41:17.196Z,98638.19
2023-03-03T07:42:29.128Z,98625.91
2023-03-03T07:43:56.459Z,98647.25
2023-03-03T07:44:59.059Z,98633.91
2023-03-03T07:46:10.913Z,98636.34
2023-03-03T07:47:20.522Z,98645.16
2023-03-03T07:48:27.093Z,98645.94
2023-03-03T07:49:35.679Z,98651.94
2023-03-03T07:50:37.169Z,98657.03
2023-03-03T07:51:42.023Z,98650.38
2023-03-03T07:52:46.357Z,98649.94
2023-03-03T07:53:48.676Z,98650.47
2023-03-03T07:54:50.322Z,98654.72
2023-03-03T07:55:51.842Z,98646.06
2023-03-03T07:56:53.342Z,98656.50
2023-03-03T07:57:59.178Z,98637.53
2023-03-03T07:59:00.852Z,98655.31
2023-03-03T08:00:16.074Z,98656.19
2023-03-03T08:01:43.848Z,98655.06
2023-03-03T08:03:00.052Z,98667.53
2023-03-03T08:04:01.717Z,98660.53
2023-03-03T08:05:22.059Z,98663.06
2023-03-03T08:06:35.365Z,98666.44
2023-03-03T08:07:36.877Z,98654.47
2023-03-03T08:08:38.370Z,98664.63
2023-03-03T08:09:51.141Z,98654.06
2023-03-03T08:10:53.623Z,98656.22
2023-03-03T08:12:07.618Z,98651.28
2023-03-03T08:13:15.505Z,98650.78
2023-03-03T08:14:17.003Z,98643.88
2023-03-03T08:15:23.378Z,98638.03
2023-03-03T08:16:30.580Z,98625.81
2023-03-03T08:17:36.866Z,98651.13
2023-03-03T08:18:48.054Z,98632.88
2023-03-03T08:19:52.954Z,98638.66
2023-03-03T08:21:12.617Z,98637.38
2023-03-03T08:22:16.417Z,98643.06
2023-03-03T08:23:18.909Z,98645.41
2023-03-03T08:24:20.473Z,98635.31
2023-03-03T08:25:21.999Z,98646.81
2023-03-03T08:26:24.277Z,98638.03
2023-03-03T08:27:25.984Z,98647.31
2023-03-03T08:28:27.906Z,98653.66
2023-03-03T08:29:29.511Z,98651.78
2023-03-03T08:30:32.127Z,98634.97
2023-03-03T08:31:41.213Z,98645.38
2023-03-03T08:32:43.742Z,98648.94
2023-03-03T08:33:47.546Z,98643.84
2023-03-03T08:34:51.440Z,98651.78
2023-03-03T08:35:53.170Z,98648.13
2023-03-03T08:36:58.139Z,98657.81
2023-03-03T08:37:59.715Z,98669.00
2023-03-03T08:39:04.719Z,98651.56
2023-03-03T08:40:09.788Z,98600.06
2023-03-03T08:41:11.521Z,98643.88
2023-03-03T08:42:16.391Z,98656.72
2023-03-03T08:43:21.833Z,98659.78
2023-03-03T08:44:23.687Z,98644.22
2023-03-03T08:45:25.743Z,98653.84
2023-03-03T08:46:28.671Z,98650.91
2023-03-03T08:47:30.102Z,98642.34
2023-03-03T08:48:31.988Z,98641.34
2023-03-03T08:49:33.519Z,98634.63
2023-03-03T08:50:35.073Z,98639.88
2023-03-03T08:51:36.664Z,98645.09
2023-03-03T08:52:38.157Z,98641.78
2023-03-03T08:53:40.016Z,98651.00
2023-03-03T08:54:41.623Z,98645.22
2023-03-03T08:55:43.309Z,98655.56
2023-03-03T08:56:44.880Z,98635.25
2023-03-03T08:57:46.416Z,98642.41
2023-03-03T08:59:03.837Z,98632.72
2023-03-03T09:00:09.606Z,98658.50
2023-03-03T09:01:11.127Z,98643.88
2023-03-03T09:02:12.706Z,98643.66
2023-03-03T09:03:14.228Z,98655.94
2023-03-03T09:04:15.784Z,98650.84
2023-03-03T09:05:17.795Z,98616.72
2023-03-03T09:06:19.317Z,98647.63
2023-03-03T09:07:20.808Z,98640.78
2023-03-03T09:08:22.740Z,98657.34
2023-03-03T09:09:24.360Z,98647.59
2023-03-03T09:10:29.488Z,98633.16
2023-03-03T09:11:32.568Z,98644.72
2023-03-03T09:12:36.543Z,98651.50
2023-03-03T09:13:38.432Z,98649.84
2023-03-03T09:14:39.976Z,98646.78
2023-03-03T09:15:41.560Z,98639.09
2023-03-03T09:16:49.935Z,98645.31
2023-03-03T09:17:51.587Z,98652.03
2023-03-03T09:18:53.190Z,98649.69
2023-03-03T09:19:57.971Z,98641.56
2023-03-03T09:20:59.571Z,98645.41
2023-03-03T09:22:19.016Z,98637.75
2023-03-03T09:23:24.004Z,98652.94
2023-03-03T09:24:27.081Z,98633.56
2023-03-03T09:25:33.600Z,98652.22
2023-03-03T09:26:46.175Z,98643.50
2023-03-03T09:27:47.794Z,98645.38
2023-03-03T09:28:49.705Z,98650.28
2023-03-03T09:29:51.344Z,98647.41
2023-03-03T09:30:56.682Z,98634.47
2023-03-03T09:32:01.066Z,98644.22
2023-03-03T09:33:03.083Z,98626.91
2023-03-03T09:34:23.595Z,98654.91
2023-03-03T09:35:38.768Z,98651.44
2023-03-03T09:36:40.339Z,98651.75
2023-03-03T09:37:44.838Z,98635.22
2023-03-03T09:38:46.430Z,98652.81
2023-03-03T09:39:52.020Z,98646.94
2023-03-03T09:41:24.462Z,98654.22
2023-03-03T09:42:54.752Z,98657.41
2023-03-03T09:44:05.804Z,98649.50
2023-03-03T09:45:19.100Z,98652.44
2023-03-03T09:46:27.270Z,98649.91
2023-03-03T09:47:33.168Z,98650.63
2023-03-03T09:48:52.558Z,98659.56
2023-03-03T09:50:02.494Z,98665.75
2023-03-03T09:51:17.082Z,98664.91
2023-03-03T09:52:37.268Z,98660.63
2023-03-03T09:53:54.268Z,98663.25
2023-03-03T09:55:07.823Z,98648.06
2023-03-03T09:56:15.714Z,98655.47
2023-03-03T09:57:43.884Z,98654.72
2023-03-03T09:59:01.629Z,98665.31
2023-03-03T10:00:19.656Z,98662.91
2023-03-03T10:01:36.132Z,98665.41
2023-03-03T10:03:04.625Z,98666.88
2023-03-03T10:04:30.766Z,98665.63
2023-03-03T10:05:50.868Z,98662.97
2023-03-03T10:07:30.027Z,98658.41
2023-03-03T10:08:44.281Z,98661.69
2023-03-03T10:10:21.543Z,98672.03
2023-03-03T10:11:23.092Z,98673.25
2023-03-03T10:12:34.054Z,98667.41
2023-03-03T10:13:45.530Z,98663.66
2023-03-03T10:14:50.624Z,98668.59
2023-03-03T10:16:04.202Z,98667.56
2023-03-03T10:17:28.935Z,98655.81
2023-03-03T10:18:47.207Z,98663.91
2023-03-03T10:20:11.988Z,98655.31
2023-03-03T10:21:37.068Z,98648.38
2023-03-03T10:23:04.068Z,98659.75
2023-03-03T10:24:26.792Z,98656.66
2023-03-03T10:25:42.326Z,98659.22
2023-03-03T10:27:13.856Z,98660.16
2023-03-03T10:28:30.291Z,98661.38
2023-03-03T10:30:08.523Z,98665.72
2023-03-03T10:31:29.176Z,98669.03
2023-03-03T10:32:52.503Z,98674.91
2023-03-03T10:34:03.091Z,98666.53
2023-03-03T10:35:32.319Z,98671.13
2023-03-03T10:36:53.973Z,98672.78
2023-03-03T10:38:07.473Z,98670.44
2023-03-03T10:39:16.737Z,98658.56
2023-03-03T10:40:24.034Z,98661.25
2023-03-03T10:42:11.807Z,98663.72
2023-03-03T10:43:51.543Z,98670.56
2023-03-03T10:45:03.109Z,98663.34
2023-03-03T10:46:13.648Z,98671.63
2023-03-03T10:47:45.566Z,98669.75
2023-03-03T10:48:56.877Z,98648.75
2023-03-03T10:50:47.359Z,98658.19
2023-03-03T10:52:14.504Z,98666.81
2023-03-03T10:53:25.173Z,98665.97
2023-03-03T10:54:38.611Z,98666.78
2023-03-03T10:55:50.017Z,98660.28
2023-03-03T10:57:19.963Z,98658.53
2023-03-03T10:58:32.504Z,98654.28
2023-03-03T10:59:52.566Z,98644.50
2023-03-03T11:01:12.597Z,98656.38
2023-03-03T11:02:35.422Z,98663.69
2023-03-03T11:03:55.346Z,98662.50
2023-03-03T11:05:13.322Z,98654.72
2023-03-03T11:06:26.455Z,98655.78
2023-03-03T11:07:33.532Z,98666.94
2023-03-03T11:08:50.836Z,98664.00
2023-03-03T11:10:40.106Z,98664.81
2023-03-03T11:11:55.529Z,98660.69
2023-03-03T11:13:32.251Z,98658.13
2023-03-03T11:15:01.150Z,98659.31
2023-03-03T11:16:11.388Z,98657.22
2023-03-03T11:17:43.319Z,98652.75
2023-03-03T11:19:22.882Z,98657.94
2023-03-03T11:20:46.408Z,98659.19
2023-03-03T11:21:55.466Z,98652.44
2023-03-03T11:23:29.325Z,98650.38
2023-03-03T11:25:12.708Z,98642.47
2023-03-03T11:26:41.536Z,98644.16
2023-03-03T11:28:04.622Z,98643.78
2023-03-03T11:29:27.982Z,98646.03
2023-03-03T11:30:58.307Z,98640.81
2023-03-03T11:32:22.949Z,98648.56
2023-03-03T11:33:36.029Z,98649.16
2023-03-03T11:34:43.267Z,98649.22
2023-03-03T11:35:58.176Z,98645.50
2023-03-03T11:37:05.655Z,98655.53
2023-03-03T11:38:12.984Z,98644.31
2023-03-03T11:39:16.678Z,98635.41
2023-03-03T11:40:21.038Z,98629.44
2023-03-03T11:41:37.702Z,98640.63
2023-03-03T11:42:58.587Z,98639.19
2023-03-03T11:44:03.384Z,98627.44
2023-03-03T11:45:22.951Z,98629.44
2023-03-03T11:46:32.946Z,98637.75
2023-03-03T11:48:01.145Z,98638.13
2023-03-03T11:49:08.278Z,98630.94
2023-03-03T11:50:20.420Z,98631.63
2023-03-03T11:51:44.720Z,98640.31
2023-03-03T11:53:02.449Z,98633.81
2023-03-03T11:54:24.136Z,98633.91
2023-03-03T11:55:31.281Z,98622.78
2023-03-03T11:56:43.208Z,98622.00
2023-03-03T11:58:12.254Z,98609.44
2023-03-03T11:59:39.313Z,98610.69
2023-03-03T12:00:51.914Z,98624.50
2023-03-03T12:01:58.116Z,98613.91
2023-03-03T12:02:59.632Z,98624.28
2023-03-03T12:04:22.401Z,98616.75
2023-03-03T12:05:51.476Z,98613.31
2023-03-03T12:07:33.223Z,98610.56
2023-03-03T12:08:59.059Z,98609.72
2023-03-03T12:10:14.040Z,98585.16
2023-03-03T12:11:27.965Z,98585.88
2023-03-03T12:12:35.135Z,98609.09
2023-03-03T12:14:02.899Z,98610.16
2023-03-03T12:15:28.731Z,98604.44
2023-03-03T12:16:52.877Z,98595.19
2023-03-03T12:18:04.708Z,98591.16
2023-03-03T12:19:39.739Z,98593.38
2023-03-03T12:21:05.173Z,98591.53
2023-03-03T12:22:31.530Z,98588.25
2023-03-03T12:23:53.278Z,98579.66
2023-03-03T12:25:15.319Z,98591.56
2023-03-03T12:26:19.949Z,98580.53
2023-03-03T12:27:54.439Z,98576.06
2023-03-03T12:29:04.607Z,98581.72
2023-03-03T12:30:28.486Z,98577.00
2023-03-03T12:31:36.887Z,98582.19
2023-03-03T12:32:50.738Z,98581.31
2023-03-03T12:34:04.368Z,98566.59
2023-03-03T12:35:27.176Z,98563.00
2023-03-03T12:36:45.200Z,98571.16
2023-03-03T12:37:47.772Z,98571.69
2023-03-03T12:39:00.986Z,98575.34
2023-03-03T12:40:16.816Z,98564.31
2023-03-03T12:41:20.925Z,98572.34
2023-03-03T12:42:31.021Z,98573.84
2023-03-03T12:43:58.748Z,98561.06
2023-03-03T12:45:33.655Z,98574.19
2023-03-03T12:46:40.932Z,98568.84
2023-03-03T12:48:03.202Z,98559.22
2023-03-03T12:49:04.760Z,98563.91
2023-03-03T12:50:30.189Z,98562.25
2023-03-03T12:51:31.994Z,98565.00
2023-03-03T12:52:52.592Z,98554.19
2023-03-03T12:54:08.805Z,98564.91
2023-03-03T12:55:28.750Z,98560.19
2023-03-03T12:56:30.202Z,98558.09
2023-03-03T12:57:31.693Z,98555.97
2023-03-03T12:58:45.182Z,98556.53
2023-03-03T12:59:57.035Z,98542.19
2023-03-03T13:01:08.694Z,98562.06
2023-03-03T13:02:39.131Z,98563.63
2023-03-03T13:03:56.159Z,98557.72
2023-03-03T13:05:17.721Z,98552.00
2023-03-03T13:06:59.549Z,98557.72
2023-03-03T13:08:31.374Z,98563.09